Overview Statistics Trail Chart Weather Telemetry Raw packets
 

This is the latest recevied weather packets stored in our database for station/object KE8WMS. If no packets are shown the sender has not sent any weather packets the latest 10 day(s).

<< 64 65 66 67 68 69 70 >>
Time Temp. Humidity Pressure Rain* Wind** Luminosity Snow
1777403528 21.11° C 62% 1007.7 hPa 0 mm - 782 W/m² -
1777403222 21.67° C 63% 1007.6 hPa 0 mm - 279 W/m² -
1777402918 21.67° C 62% 1007.6 hPa 0 mm - 650 W/m² -
1777402614 21.67° C 63% 1007.5 hPa 0 mm - 301 W/m² -
1777402312 22.78° C 59% 1007.6 hPa 0 mm - 216 W/m² -
1777402011 22.78° C 61% 1007.5 hPa 0 mm - 235 W/m² -
1777401710 22.22° C 61% 1007.3 hPa 0 mm - 747 W/m² -
1777401407 21.67° C 64% 1007.3 hPa 0 mm - 842 W/m² -
1777401102 22.78° C 62% 1007.3 hPa 0 mm - 160 W/m² -
1777400798 22.78° C 61% 1007.3 hPa 0 mm - 886 W/m² -
1777400495 22.22° C 62% 1007.3 hPa 0 mm - 884 W/m² -
1777400192 22.78° C 60% 1007.2 hPa 0 mm - 417 W/m² -
1777399888 23.33° C 62% 1007.2 hPa 0 mm - 848 W/m² -
1777399585 23.33° C 65% 1007.2 hPa 0 mm - 861 W/m² -
1777399282 22.22° C 67% 1007.1 hPa 0 mm - 845 W/m² -
1777398980 22.78° C 68% 1007.2 hPa 0 mm - 830 W/m² -
1777398677 21.67° C 70% 1006.8 hPa 0 mm - 808 W/m² -
1777398374 21.11° C 72% 1007 hPa 0 mm - 887 W/m² -
1777398070 22.22° C 69% 1007.1 hPa 0 mm - 822 W/m² -
1777397768 21.11° C 73% 1006.8 hPa 0 mm - 944 W/m² -
1777397463 21.67° C 71% 1006.9 hPa 0 mm - 279 W/m² -
1777397159 21.67° C 73% 1007 hPa 0 mm - 877 W/m² -
1777396856 21.11° C 75% 1007 hPa 0 mm - 485 W/m² -
1777396552 21.11° C 77% 1007.1 hPa 0 mm - 454 W/m² -
1777396250 20.56° C 77% 1007 hPa 0 mm - 862 W/m² -

* Rain latest hour (hover to see other rain measurements)
** Current wind speed in m/s (hover to see current wind gust speed)